Aérodrome de Cahors-Lalbenque

LFCC · Lot, Occitanie, 法国

使用的TAF站离机场有73 km的距离
2024年5月25日 17:002024年5月26日 02:00有效
时间
星期六
17:00
星期六
18:00
星期六
19:00
星期六
20:00
星期六
21:00
星期六
22:00
星期六
23:00
星期日
00:00
星期日
01:00
代码
VFR
VFR
VFR
VFR
VFR
VFR
VFR
VFR
VFR
天气
天空晴朗
天空晴朗
天空晴朗
天空晴朗
天空晴朗
天空晴朗
天空晴朗
天空晴朗
天空晴朗
能见度
10 km+
10 km+
10 km+
10 km+
10 km+
10 km+
10 km+
10 km+
10 km+
天花板
-
-
-
-
-
-
-
-
-
110°
110°
110°
110°
110°
110°
110°
110°
Var
Var
Var
Var
Var
Var
280°
280°
280°
280°
速度
10 kt
10 kt
10 kt
10 kt
10 kt
10 kt
3 kt
10 kt
10 kt
阵风
温度/星期日
21:28

原版的

TAF LFBA 251400Z 2515/2524 11010KT CAVOK
BECMG 2519/2521 VRB03KT
BECMG 2522/2524 28010KT

TAF Aérodrome de Cahors-Lalbenque

Aérodrome de Cahors-Lalbenque是,法国中的中型机场。 该机场位于纬度44,35140和经度1,47472。 该机场有2条跑道: 13/31 和 13L/31R. 本场的ICAO机场代码为LFCC。 该机场的IATA代码为ZAO。 机场在Bordeaux FIR中。

该航空气象观测是针对Agen-La Garenne Airport在2024年5月25日 16:00, 当地时间进行的。 从2024年5月25日 17:00到2024年5月26日 02:00, 当地时间有效.

预报

  • 在星期六 17:00和星期日 02:00之间

    • 风: 风来自110°方向,速度为10 kt。
    • CAVOK: 天气为CAVOK。这意味着在5.000 ft或MSA(最低安全高度)以下(以较高者为准)以下没有云。这也意味着没有观测到积雨云或高耸的积云,可见度为10 km 或者更多或更高。此外,不会有雾,降雨或其他重要天气。
  • 介于星期六 21:00和23:00之间

    • 风: 可变方向的风很小或没有。
  • 介于星期日 00:00和02:00之间

    • 风: 风来自280°方向,速度为10 kt。

白天

今天,太阳从06:16升起,在21:26降落。 这适用于Aérodrome de Cahors-Lalbenque,世界夏令时可能有所不同。 当地时间与世界标准时间之间的时差为+2 小时。 夏令时目前正在进行中。

报告变更